Time;durP1;ratioP1;P1;durP2;ratioP2;P2;SDS_P1;SDS_P2;PMS_P1;PMS_P2;Temp;Humidity;BMP_temperature;BMP_pressure;BME280_temperature;BME280_humidity;BME280_pressure;Samples;Min_cycle;Max_cycle;Signal;HPM_P1;HPM_P2
2023/05/11 00:02:16;;;;;;;24.23;14.57;;;;;;;14.49;83.18;99647.97;5023192;28;20455;-73
2023/05/11 00:04:42;;;;;;;29.02;15.40;;;;;;;14.46;83.32;99649.34;5022702;28;20358;-73
2023/05/11 00:07:07;;;;;;;31.00;14.70;;;;;;;14.46;83.27;99640.34;5023183;28;20059;-73
2023/05/11 00:09:33;;;;;;;27.63;14.65;;;;;;;14.42;83.28;99640.09;5022043;28;20048;-73
2023/05/11 00:11:58;;;;;;;35.63;15.93;;;;;;;14.40;83.15;99639.56;5022575;28;20045;-73
2023/05/11 00:14:24;;;;;;;29.57;16.90;;;;;;;14.40;83.88;99638.75;5022551;28;20524;-73
2023/05/11 00:16:49;;;;;;;24.77;13.05;;;;;;;14.31;84.33;99650.38;5022855;28;20262;-73
2023/05/11 00:19:14;;;;;;;23.67;13.93;;;;;;;14.31;84.15;99650.38;5022571;28;20036;-73
2023/05/11 00:21:40;;;;;;;23.52;12.50;;;;;;;14.39;83.75;99648.91;5021871;28;20033;-74
2023/05/11 00:24:05;;;;;;;28.70;15.68;;;;;;;14.51;83.30;99640.25;5023186;28;20041;-73
2023/05/11 00:26:31;;;;;;;28.52;14.15;;;;;;;14.50;83.06;99649.59;5022691;28;20029;-73
2023/05/11 00:28:56;;;;;;;24.38;14.65;;;;;;;14.51;83.37;99645.75;5022365;28;20037;-73
2023/05/11 00:31:22;;;;;;;28.88;16.33;;;;;;;14.50;83.18;99646.03;5022501;28;20045;-73
2023/05/11 00:33:47;;;;;;;28.00;15.15;;;;;;;14.54;83.31;99649.84;5022474;28;20037;-73
2023/05/11 00:36:12;;;;;;;28.40;13.80;;;;;;;14.44;83.28;99645.28;5022047;28;20036;-73
2023/05/11 00:38:41;;;;;;;22.67;13.35;;;;;;;14.45;83.35;99646.91;5022205;28;20874;-73
2023/05/11 00:41:07;;;;;;;31.73;15.18;;;;;;;14.52;83.04;99652.06;5022545;28;20138;-73
2023/05/11 00:43:33;;;;;;;23.00;13.90;;;;;;;14.47;83.30;99650.19;5022458;28;20061;-73
2023/05/11 00:45:58;;;;;;;26.08;15.35;;;;;;;14.53;83.26;99648.19;5022065;28;21177;-73
2023/05/11 00:48:23;;;;;;;32.80;15.95;;;;;;;14.46;83.33;99643.06;5021747;28;20038;-73
2023/05/11 00:50:49;;;;;;;24.33;16.23;;;;;;;14.52;83.08;99644.63;5022108;28;20048;-73
2023/05/11 00:53:14;;;;;;;37.95;17.30;;;;;;;14.58;82.90;99646.19;5022060;28;20487;-73
2023/05/11 00:55:40;;;;;;;22.90;13.80;;;;;;;14.58;82.80;99650.88;5021910;28;20519;-73
2023/05/11 00:58:06;;;;;;;23.48;14.88;;;;;;;14.53;82.86;99643.53;5021750;28;20044;-74
2023/05/11 01:00:31;;;;;;;29.80;15.48;;;;;;;14.56;82.80;99645.66;5022392;28;20486;-73
2023/05/11 01:02:58;;;;;;;22.90;13.47;;;;;;;14.61;82.46;99650.28;5021963;28;20099;-73
2023/05/11 01:05:39;;;;;;;21.60;13.48;;;;;;;14.61;82.38;99643.97;5021694;28;20251;-73
2023/05/11 01:08:12;;;;;;;29.23;16.15;;;;;;;14.66;82.44;99646.66;5022053;28;20033;-73
2023/05/11 01:10:51;;;;;;;32.20;15.50;;;;;;;14.67;81.59;99648.28;5021265;28;20498;-74
2023/05/11 01:13:30;;;;;;;31.85;14.98;;;;;;;14.66;82.19;99650.22;5021990;28;20064;-73
2023/05/11 01:15:55;;;;;;;26.23;15.00;;;;;;;14.65;82.30;99643.09;5022273;28;20061;-73
2023/05/11 01:18:27;;;;;;;29.58;16.10;;;;;;;14.68;82.36;99641.69;5021106;28;20104;-73
2023/05/11 01:20:55;;;;;;;23.98;15.38;;;;;;;14.77;82.08;99645.38;5021265;28;20639;-74
2023/05/11 01:23:57;;;;;;;28.67;16.20;;;;;;;14.79;81.53;99645.91;5021354;28;20601;-73
2023/05/11 01:26:31;;;;;;;36.83;17.02;;;;;;;14.71;82.21;99644.66;5021447;28;20041;-73
2023/05/11 01:29:03;;;;;;;29.20;18.73;;;;;;;14.69;82.20;99646.03;5021700;28;20033;-73
2023/05/11 01:31:33;;;;;;;33.97;17.65;;;;;;;14.64;82.29;99646.97;5021618;28;20036;-74
2023/05/11 01:34:11;;;;;;;30.95;16.42;;;;;;;14.56;82.79;99648.41;5021013;28;20114;-73
2023/05/11 01:36:43;;;;;;;31.65;19.20;;;;;;;14.57;82.87;99639.06;5021254;28;20036;-73
2023/05/11 01:39:10;;;;;;;24.98;15.38;;;;;;;14.56;83.00;99640.19;5021040;28;20040;-73
2023/05/11 01:41:39;;;;;;;27.77;15.20;;;;;;;14.60;82.78;99637.69;5020925;28;21220;-73
2023/05/11 01:44:08;;;;;;;26.02;15.43;;;;;;;14.57;82.75;99649.22;5021675;28;20030;-73
2023/05/11 01:46:33;;;;;;;35.90;19.45;;;;;;;14.58;82.77;99651.66;5021696;28;20072;-73
2023/05/11 01:49:02;;;;;;;33.03;17.98;;;;;;;14.59;82.60;99647.84;5021244;28;20057;-73
2023/05/11 01:51:33;;;;;;;25.75;15.45;;;;;;;14.62;82.41;99645.59;5020884;28;20033;-73
2023/05/11 01:53:59;;;;;;;21.35;14.32;;;;;;;14.59;82.77;99641.53;5021445;28;20064;-73
2023/05/11 01:56:26;;;;;;;28.20;15.05;;;;;;;14.59;82.42;99647.00;5020912;28;20041;-73
2023/05/11 01:58:54;;;;;;;24.98;16.25;;;;;;;14.57;82.40;99652.78;5020827;28;20083;-73
2023/05/11 02:01:20;;;;;;;31.98;15.48;;;;;;;14.58;82.78;99653.63;5020905;28;20367;-74
2023/05/11 02:03:47;;;;;;;26.65;16.52;;;;;;;14.54;82.69;99656.09;5021021;28;20040;-73
2023/05/11 02:06:14;;;;;;;26.42;14.45;;;;;;;14.50;82.61;99663.31;5021045;28;20040;-73
2023/05/11 02:08:40;;;;;;;32.53;16.15;;;;;;;14.47;82.87;99658.41;5020604;28;20037;-73
2023/05/11 02:11:06;;;;;;;23.80;15.02;;;;;;;14.52;83.20;99661.06;5020702;28;20075;-73
2023/05/11 02:13:35;;;;;;;33.97;18.10;;;;;;;14.52;82.84;99655.59;5020641;28;20029;-73
2023/05/11 02:16:02;;;;;;;29.92;17.23;;;;;;;14.48;82.91;99660.06;5021338;28;20046;-73
2023/05/11 02:18:28;;;;;;;33.75;18.88;;;;;;;14.52;82.95;99661.06;5020722;28;20041;-73
2023/05/11 02:20:56;;;;;;;27.77;16.85;;;;;;;14.57;82.82;99661.03;5021045;28;20119;-73
2023/05/11 02:23:23;;;;;;;38.63;17.13;;;;;;;14.51;83.09;99651.22;5020746;28;20048;-73
2023/05/11 02:25:51;;;;;;;36.25;18.05;;;;;;;14.46;83.40;99659.53;5021068;28;20025;-73
2023/05/11 02:28:17;;;;;;;33.38;16.77;;;;;;;14.39;83.34;99659.06;5020430;28;20087;-73
2023/05/11 02:30:50;;;;;;;28.88;17.33;;;;;;;14.40;83.50;99660.69;5022330;28;20029;-73
2023/05/11 02:33:24;;;;;;;29.27;16.80;;;;;;;14.39;83.48;99653.56;5020745;28;20083;-73
2023/05/11 02:35:51;;;;;;;33.38;18.60;;;;;;;14.38;83.75;99657.44;5020838;28;20594;-74
2023/05/11 02:38:18;;;;;;;43.25;17.55;;;;;;;14.41;83.51;99656.84;5020408;28;20376;-73
2023/05/11 02:40:50;;;;;;;31.35;19.08;;;;;;;14.49;83.21;99661.69;5020749;28;20075;-73
2023/05/11 02:43:22;;;;;;;39.22;20.90;;;;;;;14.43;83.36;99660.94;5020783;28;20025;-73
2023/05/11 02:45:51;;;;;;;31.85;19.25;;;;;;;14.45;83.56;99664.19;5023389;28;20045;-72
2023/05/11 02:48:28;;;;;;;27.92;17.05;;;;;;;14.40;83.09;99661.50;5024464;28;20037;-73
2023/05/11 02:50:55;;;;;;;32.55;19.80;;;;;;;14.42;83.81;99653.78;5024900;28;20095;-73
2023/05/11 02:53:26;;;;;;;35.05;19.05;;;;;;;14.52;83.32;99655.59;5025360;28;20116;-73
2023/05/11 02:55:53;;;;;;;32.00;17.85;;;;;;;14.47;83.34;99650.19;5025143;28;20076;-73
2023/05/11 02:58:19;;;;;;;32.10;18.83;;;;;;;14.42;83.55;99655.75;5024320;28;20038;-73
2023/05/11 03:00:45;;;;;;;31.48;19.20;;;;;;;14.47;83.53;99663.88;5024607;28;20506;-73
2023/05/11 03:03:10;;;;;;;32.67;17.83;;;;;;;14.47;83.72;99661.16;5024844;28;20049;-73
2023/05/11 03:05:36;;;;;;;30.20;17.50;;;;;;;14.39;84.15;99659.06;5024083;28;20021;-73
2023/05/11 03:08:02;;;;;;;31.25;18.08;;;;;;;14.46;83.88;99665.00;5024219;28;20040;-73
2023/05/11 03:10:28;;;;;;;33.60;16.95;;;;;;;14.46;83.63;99670.50;5024343;28;20034;-73
2023/05/11 03:12:54;;;;;;;30.60;15.98;;;;;;;14.48;83.83;99665.53;5024350;28;20470;-73
2023/05/11 03:15:20;;;;;;;34.13;18.23;;;;;;;14.48;83.67;99663.59;5025411;28;20033;-73
2023/05/11 03:17:47;;;;;;;31.23;20.13;;;;;;;14.47;83.57;99656.50;5025048;28;20642;-73
2023/05/11 03:20:15;;;;;;;34.67;19.60;;;;;;;14.48;83.30;99668.28;5024874;28;20029;-73
2023/05/11 03:22:41;;;;;;;38.53;21.23;;;;;;;14.51;83.50;99661.38;5025062;28;20044;-73
2023/05/11 03:25:08;;;;;;;35.28;21.75;;;;;;;14.44;84.24;99661.75;5024857;28;20057;-73
2023/05/11 03:27:35;;;;;;;31.00;18.27;;;;;;;14.36;84.31;99660.44;5024558;28;20030;-74
2023/05/11 03:30:03;;;;;;;33.42;20.65;;;;;;;14.33;84.71;99664.63;5024565;28;20057;-73
2023/05/11 03:32:28;;;;;;;32.97;20.13;;;;;;;14.40;84.44;99657.97;5024558;28;20033;-73
2023/05/11 03:34:54;;;;;;;36.13;20.65;;;;;;;14.36;84.88;99654.97;5024503;28;20071;-73
2023/05/11 03:37:20;;;;;;;32.85;20.52;;;;;;;14.33;85.24;99664.63;5024611;28;20117;-73
2023/05/11 03:39:51;;;;;;;39.83;21.02;;;;;;;14.26;85.42;99661.41;5023657;28;20037;-73
2023/05/11 03:42:17;;;;;;;37.63;20.58;;;;;;;14.29;85.56;99663.56;5024903;28;20044;-74
2023/05/11 03:44:46;;;;;;;34.63;18.60;;;;;;;14.36;84.78;99658.53;5024079;28;20034;-73
2023/05/11 03:47:13;;;;;;;34.88;19.63;;;;;;;14.29;85.21;99655.34;5024642;28;20037;-73
2023/05/11 03:49:38;;;;;;;37.88;21.27;;;;;;;14.29;85.22;99649.84;5023217;28;20034;-74
2023/05/11 03:52:05;;;;;;;34.30;19.65;;;;;;;14.29;85.51;99657.25;5024286;28;20029;-72
2023/05/11 03:54:31;;;;;;;38.97;20.73;;;;;;;14.29;85.79;99649.84;5023889;28;20037;-73
2023/05/11 03:56:56;;;;;;;31.88;17.77;;;;;;;14.28;85.75;99659.19;5023476;28;20025;-73
2023/05/11 03:59:22;;;;;;;31.58;18.02;;;;;;;14.30;85.70;99656.97;5023740;28;20037;-73
2023/05/11 04:01:51;;;;;;;28.65;17.17;;;;;;;14.29;85.82;99660.00;5024208;28;20354;-73
2023/05/11 04:04:17;;;;;;;30.70;19.08;;;;;;;14.27;85.83;99657.56;5024223;28;20078;-73
2023/05/11 04:06:42;;;;;;;35.80;20.45;;;;;;;14.28;85.72;99659.19;5022908;28;20086;-73
2023/05/11 04:09:07;;;;;;;36.47;20.80;;;;;;;14.39;85.27;99656.31;5022827;28;20037;-73
2023/05/11 04:11:37;;;;;;;36.07;19.87;;;;;;;14.45;85.10;99657.88;5022418;28;20314;-73
2023/05/11 04:14:02;;;;;;;29.30;17.70;;;;;;;14.36;85.36;99661.28;5023432;28;20292;-73
2023/05/11 04:16:27;;;;;;;31.90;18.38;;;;;;;14.35;85.07;99658.84;5022550;28;20057;-73
2023/05/11 04:18:53;;;;;;;34.17;18.80;;;;;;;14.34;85.19;99657.19;5022645;28;21276;-73
2023/05/11 04:21:18;;;;;;;33.20;18.90;;;;;;;14.31;85.21;99653.13;5022617;28;20291;-73
2023/05/11 04:23:43;;;;;;;33.10;18.50;;;;;;;14.37;85.27;99656.63;5022955;28;20313;-73
2023/05/11 04:26:08;;;;;;;32.10;19.40;;;;;;;14.38;84.81;99657.44;5023224;28;20849;-74
2023/05/11 04:28:34;;;;;;;34.70;21.08;;;;;;;14.40;84.79;99660.69;5022458;28;20251;-74
2023/05/11 04:30:59;;;;;;;57.15;22.13;;;;;;;14.47;84.30;99666.63;5023171;28;20053;-73
2023/05/11 04:33:25;;;;;;;38.33;21.05;;;;;;;14.48;84.52;99669.06;5022584;28;20040;-73
2023/05/11 04:35:51;;;;;;;32.77;19.37;;;;;;;14.44;84.46;99673.50;5022355;28;20037;-73
2023/05/11 04:38:17;;;;;;;34.47;21.55;;;;;;;14.41;84.78;99667.81;5022375;28;20251;-73
2023/05/11 04:40:43;;;;;;;31.30;19.45;;;;;;;14.41;85.00;99656.84;5022692;28;20033;-73
2023/05/11 04:43:08;;;;;;;36.17;21.50;;;;;;;14.43;84.75;99671.06;5022367;28;20099;-73
2023/05/11 04:45:33;;;;;;;36.20;21.77;;;;;;;14.48;84.21;99665.53;5022619;28;20257;-73
2023/05/11 04:47:58;;;;;;;31.92;18.63;;;;;;;14.43;84.55;99668.34;5022005;28;20032;-73
2023/05/11 04:50:24;;;;;;;30.77;19.03;;;;;;;14.44;84.71;99672.72;5022319;28;20061;-74
2023/05/11 04:52:49;;;;;;;39.73;22.40;;;;;;;14.47;84.69;99666.63;5022340;28;20286;-73
2023/05/11 04:55:15;;;;;;;34.13;19.17;;;;;;;14.44;84.57;99675.47;5022578;28;20266;-73
2023/05/11 04:57:40;;;;;;;32.28;19.17;;;;;;;14.42;84.69;99664.75;5023000;28;20279;-73
2023/05/11 05:00:07;;;;;;;33.35;18.30;;;;;;;14.51;84.64;99678.66;5021861;28;20408;-73
2023/05/11 05:02:32;;;;;;;30.70;19.25;;;;;;;14.52;84.26;99680.28;5022463;28;20430;-73
2023/05/11 05:04:58;;;;;;;32.50;18.52;;;;;;;14.54;84.23;99678.06;5022375;28;20037;-73
2023/05/11 05:07:23;;;;;;;30.17;18.40;;;;;;;14.54;84.66;99683.53;5022635;28;20120;-73
2023/05/11 05:09:49;;;;;;;29.10;18.08;;;;;;;14.59;84.18;99691.72;5021517;28;20041;-73
2023/05/11 05:12:14;;;;;;;28.45;17.58;;;;;;;14.54;84.14;99682.75;5022059;28;20049;-73
2023/05/11 05:14:39;;;;;;;39.47;18.30;;;;;;;14.62;84.18;99686.75;5022066;28;20091;-73
2023/05/11 05:17:05;;;;;;;31.23;18.92;;;;;;;14.62;84.12;99692.25;5022110;28;20471;-73
2023/05/11 05:19:30;;;;;;;32.10;19.23;;;;;;;14.68;84.21;99693.81;5021353;28;20113;-73
2023/05/11 05:21:55;;;;;;;29.80;16.85;;;;;;;14.65;84.00;99695.22;5021978;28;20083;-73
2023/05/11 05:24:21;;;;;;;28.60;15.77;;;;;;;14.67;83.99;99697.66;5021491;28;20030;-73
2023/05/11 05:26:46;;;;;;;29.80;18.33;;;;;;;14.71;83.70;99695.97;5022087;28;20040;-73
2023/05/11 05:29:11;;;;;;;26.67;16.43;;;;;;;14.69;83.15;99699.00;5021504;28;20090;-73
2023/05/11 05:31:36;;;;;;;28.07;15.87;;;;;;;14.48;83.71;99701.19;5021098;28;20273;-73
2023/05/11 05:34:02;;;;;;;25.03;16.33;;;;;;;14.45;84.41;99707.25;5021069;28;20282;-73
2023/05/11 05:36:27;;;;;;;32.33;18.37;;;;;;;14.54;84.48;99708.22;5020861;28;20294;-73
2023/05/11 05:38:52;;;;;;;26.80;16.50;;;;;;;14.61;84.16;99702.41;5021390;28;20271;-73
2023/05/11 05:41:18;;;;;;;29.38;17.25;;;;;;;14.64;83.56;99703.75;5021613;28;20345;-73
2023/05/11 05:43:43;;;;;;;30.90;16.25;;;;;;;14.63;83.48;99707.59;5019800;28;20033;-73
2023/05/11 05:46:08;;;;;;;26.37;16.93;;;;;;;14.72;83.30;99711.31;5021075;28;20030;-74
2023/05/11 05:48:33;;;;;;;30.00;16.40;;;;;;;14.73;83.40;99701.97;5021094;28;20345;-73
2023/05/11 05:50:59;;;;;;;33.63;18.80;;;;;;;14.76;83.58;99706.88;5021386;28;20286;-73
2023/05/11 05:53:24;;;;;;;30.92;17.27;;;;;;;14.87;83.17;99715.00;5021577;28;20266;-74
2023/05/11 05:55:49;;;;;;;27.98;15.75;;;;;;;14.91;82.77;99718.78;5021573;28;20034;-73
2023/05/11 05:58:15;;;;;;;25.77;16.60;;;;;;;14.70;83.26;99719.03;5021024;28;21000;-73
2023/05/11 06:00:40;;;;;;;29.80;15.87;;;;;;;14.82;83.53;99727.66;5021192;28;20255;-73
2023/05/11 06:03:05;;;;;;;32.22;18.17;;;;;;;15.00;83.13;99727.19;5021466;28;20282;-73
2023/05/11 06:05:31;;;;;;;26.73;14.60;;;;;;;15.00;82.47;99728.00;5020601;28;20088;-73
2023/05/11 06:07:56;;;;;;;27.85;16.52;;;;;;;14.90;82.50;99728.13;5020444;28;20048;-73
2023/05/11 06:10:21;;;;;;;24.50;15.03;;;;;;;14.89;82.19;99732.00;5021056;28;20554;-73
2023/05/11 06:12:46;;;;;;;24.90;15.70;;;;;;;15.03;82.53;99729.34;5020699;28;20353;-73
2023/05/11 06:15:12;;;;;;;25.93;13.40;;;;;;;15.10;82.00;99731.69;5020719;28;20258;-73
2023/05/11 06:17:37;;;;;;;27.00;13.93;;;;;;;15.08;81.97;99733.94;5020736;28;20344;-73
2023/05/11 06:20:02;;;;;;;22.23;13.43;;;;;;;14.92;81.33;99728.66;5019648;28;20072;-74
2023/05/11 06:22:28;;;;;;;26.33;14.02;;;;;;;14.89;81.89;99737.50;5020505;28;20262;-73
2023/05/11 06:24:53;;;;;;;26.27;15.40;;;;;;;14.92;82.23;99728.66;5020848;28;20039;-73
2023/05/11 06:27:18;;;;;;;23.63;12.75;;;;;;;15.04;81.68;99726.28;5019862;28;20786;-73
2023/05/11 06:29:43;;;;;;;26.87;14.70;;;;;;;15.16;81.53;99725.84;5020358;28;20532;-75
2023/05/11 06:32:09;;;;;;;29.20;15.40;;;;;;;15.19;81.15;99727.19;5020711;28;20266;-75
2023/05/11 06:34:34;;;;;;;29.40;15.27;;;;;;;15.19;80.95;99729.13;5020651;28;20037;-74
2023/05/11 06:36:59;;;;;;;30.07;16.40;;;;;;;15.14;81.08;99724.50;5020889;28;20259;-74
2023/05/11 06:39:25;;;;;;;23.50;13.73;;;;;;;15.16;80.72;99723.09;5020518;28;20263;-74
2023/05/11 06:41:51;;;;;;;25.90;15.83;;;;;;;15.14;80.74;99727.25;5021037;28;20463;-74
2023/05/11 06:44:16;;;;;;;25.17;15.52;;;;;;;15.21;80.71;99722.22;5020996;28;20617;-74
2023/05/11 06:46:42;;;;;;;25.37;14.90;;;;;;;15.26;80.66;99730.38;5020631;28;20033;-73
2023/05/11 06:49:07;;;;;;;30.20;16.63;;;;;;;15.29;80.23;99723.47;5020665;28;20266;-74
2023/05/11 06:51:33;;;;;;;20.60;12.85;;;;;;;15.31;80.55;99732.25;5020683;28;20298;-75
2023/05/11 06:53:58;;;;;;;22.20;13.60;;;;;;;15.29;79.90;99731.72;5021408;28;20471;-73
2023/05/11 06:56:23;;;;;;;28.30;16.52;;;;;;;15.37;79.71;99730.22;5020774;28;20368;-74
2023/05/11 06:58:49;;;;;;;27.50;13.85;;;;;;;15.40;79.56;99724.94;5020633;28;20034;-75
2023/05/11 07:01:14;;;;;;;28.45;16.33;;;;;;;15.50;79.48;99728.63;5020748;28;20426;-74
2023/05/11 07:03:39;;;;;;;21.17;12.68;;;;;;;15.50;78.68;99732.22;5020901;28;20679;-74
2023/05/11 07:06:05;;;;;;;24.15;13.95;;;;;;;15.47;78.77;99729.25;5020526;28;20191;-75
2023/05/11 07:08:30;;;;;;;21.98;12.65;;;;;;;15.41;78.67;99736.75;5020183;28;20124;-74
2023/05/11 07:10:56;;;;;;;23.48;13.50;;;;;;;15.38;79.28;99738.16;5020724;28;20137;-74
2023/05/11 07:13:21;;;;;;;26.30;13.73;;;;;;;15.51;78.73;99730.28;5020491;28;20029;-74
2023/05/11 07:15:46;;;;;;;25.65;12.75;;;;;;;15.51;77.90;99742.09;5020291;28;20061;-75
2023/05/11 07:18:11;;;;;;;23.77;12.80;;;;;;;15.59;77.51;99737.03;5020446;28;20545;-75
2023/05/11 07:20:38;;;;;;;24.98;14.45;;;;;;;15.67;77.44;99739.09;5020813;28;20263;-75
2023/05/11 07:23:04;;;;;;;26.10;14.32;;;;;;;15.51;78.38;99733.03;5020476;28;20041;-75
2023/05/11 07:25:29;;;;;;;25.58;14.80;;;;;;;15.62;78.17;99731.75;5020710;28;20034;-75
2023/05/11 07:27:55;;;;;;;22.07;13.93;;;;;;;15.76;77.69;99737.28;5020436;28;20176;-75
2023/05/11 07:30:21;;;;;;;23.65;14.40;;;;;;;15.77;77.22;99738.09;5020794;28;20254;-75
2023/05/11 07:32:46;;;;;;;26.75;15.48;;;;;;;15.73;76.73;99737.91;5022662;28;20040;-76
2023/05/11 07:35:11;;;;;;;24.73;13.23;;;;;;;15.76;77.11;99740.03;5024339;28;20088;-75
2023/05/11 07:37:37;;;;;;;22.17;12.30;;;;;;;15.80;76.98;99743.03;5024218;28;20044;-76
2023/05/11 07:40:03;;;;;;;24.20;12.23;;;;;;;15.80;76.58;99743.03;5023610;28;20518;-75
2023/05/11 07:42:29;;;;;;;25.77;14.80;;;;;;;15.78;76.46;99745.25;5024317;28;20338;-75
2023/05/11 07:44:54;;;;;;;23.75;12.57;;;;;;;15.79;75.72;99735.88;5023836;28;20543;-74
2023/05/11 07:47:19;;;;;;;21.47;13.10;;;;;;;15.83;75.66;99742.41;5024033;28;20053;-74
2023/05/11 07:49:46;;;;;;;24.27;13.98;;;;;;;15.78;75.31;99736.19;5023313;28;20259;-75
2023/05/11 07:52:12;;;;;;;29.38;16.55;;;;;;;15.81;75.93;99735.56;5023967;28;20029;-74
2023/05/11 07:54:38;;;;;;;25.77;13.88;;;;;;;15.99;75.79;99734.69;5023679;28;20453;-73
2023/05/11 07:57:04;;;;;;;24.75;13.38;;;;;;;16.02;74.97;99733.31;5023822;28;20034;-74
2023/05/11 07:59:29;;;;;;;21.30;12.35;;;;;;;16.09;75.17;99730.97;5022853;28;20044;-74
2023/05/11 08:01:55;;;;;;;28.48;12.95;;;;;;;16.25;73.80;99729.91;5023816;28;20032;-74
2023/05/11 08:04:21;;;;;;;23.27;13.93;;;;;;;16.32;72.92;99735.81;5023367;28;20025;-73
2023/05/11 08:06:46;;;;;;;20.75;10.77;;;;;;;16.51;72.05;99726.63;5022885;28;20029;-74
2023/05/11 08:09:11;;;;;;;21.73;11.93;;;;;;;16.63;71.57;99735.19;5023004;28;20083;-74
2023/05/11 08:11:36;;;;;;;22.38;12.05;;;;;;;16.75;71.68;99729.19;5021462;28;20755;-74
2023/05/11 08:14:02;;;;;;;18.43;10.93;;;;;;;16.81;71.18;99732.63;5023357;28;20462;-74
2023/05/11 08:16:27;;;;;;;20.38;12.55;;;;;;;16.75;71.66;99728.34;5023228;28;20302;-74
2023/05/11 08:18:53;;;;;;;18.50;11.48;;;;;;;16.88;71.67;99735.78;5023012;28;20479;-74
2023/05/11 08:21:18;;;;;;;21.73;11.93;;;;;;;16.90;69.82;99730.78;5023118;28;20030;-75
2023/05/11 08:23:43;;;;;;;20.57;11.83;;;;;;;16.90;69.54;99739.03;5023047;28;20282;-75
2023/05/11 08:26:09;;;;;;;15.17;8.53;;;;;;;16.84;69.77;99733.97;5023172;28;20275;-74
2023/05/11 08:28:34;;;;;;;19.40;11.63;;;;;;;16.83;69.64;99733.13;5022296;28;20258;-74
2023/05/11 08:31:00;;;;;;;17.13;10.27;;;;;;;16.86;69.71;99727.00;5023150;28;20120;-74
2023/05/11 08:33:26;;;;;;;19.95;11.88;;;;;;;16.91;69.50;99732.41;5021198;28;20033;-74
2023/05/11 08:35:51;;;;;;;23.85;12.25;;;;;;;16.99;69.75;99730.03;5022753;28;20037;-74
2023/05/11 08:38:18;;;;;;;16.63;11.10;;;;;;;16.97;69.61;99724.84;5022538;28;20087;-75
2023/05/11 08:40:46;;;;;;;17.77;10.68;;;;;;;17.00;69.25;99732.47;5022572;28;20044;-74
2023/05/11 08:43:16;;;;;;;19.48;11.30;;;;;;;16.99;69.14;99735.56;5022079;28;20491;-74
2023/05/11 08:45:46;;;;;;;19.10;10.50;;;;;;;17.04;69.66;99733.50;5022687;28;20037;-73
2023/05/11 08:48:14;;;;;;;16.67;8.98;;;;;;;17.09;69.76;99737.25;5022408;28;20033;-74
2023/05/11 08:50:39;;;;;;;18.67;11.02;;;;;;;17.03;69.37;99729.13;5022380;28;20030;-74
2023/05/11 08:53:05;;;;;;;21.60;11.40;;;;;;;16.93;68.84;99737.59;5022488;28;20048;-74
2023/05/11 08:55:32;;;;;;;18.55;10.90;;;;;;;16.96;68.49;99741.69;5022439;28;20040;-74
2023/05/11 08:58:01;;;;;;;17.35;11.00;;;;;;;17.02;67.42;99735.75;5022081;28;20036;-74
2023/05/11 09:00:28;;;;;;;20.65;9.88;;;;;;;16.95;67.31;99740.88;5022439;28;20079;-73
2023/05/11 09:02:54;;;;;;;16.92;9.05;;;;;;;16.85;67.60;99741.09;5022363;28;20029;-74
2023/05/11 09:05:20;;;;;;;17.60;9.88;;;;;;;17.04;67.79;99735.47;5023385;28;20033;-91
2023/05/11 09:07:49;;;;;;;17.25;11.07;;;;;;;17.21;68.17;99739.50;5024555;28;20021;-91
2023/05/11 09:10:14;;;;;;;16.02;9.13;;;;;;;17.24;67.85;99739.72;5024732;28;20037;-85
2023/05/11 09:12:40;;;;;;;17.13;10.05;;;;;;;17.24;68.00;99741.66;5022829;28;20123;-79
2023/05/11 09:15:06;;;;;;;27.98;12.02;;;;;;;17.23;68.17;99745.50;5022202;28;20029;-79
2023/05/11 09:17:31;;;;;;;16.50;11.13;;;;;;;17.27;67.94;99741.84;5021846;28;21255;-79
2023/05/11 09:20:01;;;;;;;25.43;11.93;;;;;;;17.22;67.87;99739.22;5021517;28;20042;-78
2023/05/11 09:22:26;;;;;;;18.95;10.25;;;;;;;17.41;68.07;99742.94;5021999;28;20255;-79
2023/05/11 09:24:52;;;;;;;19.35;10.02;;;;;;;17.46;67.81;99737.28;5021742;28;20441;-78
2023/05/11 09:27:17;;;;;;;16.73;10.02;;;;;;;17.45;67.48;99738.44;5022436;28;20029;-79
2023/05/11 09:29:43;;;;;;;19.25;10.95;;;;;;;17.39;67.29;99744.03;5021413;28;20165;-79
2023/05/11 09:32:08;;;;;;;13.63;8.35;;;;;;;17.52;67.36;99736.03;5022391;28;20140;-79
2023/05/11 09:34:33;;;;;;;18.50;10.23;;;;;;;17.54;66.46;99722.75;5021743;28;20048;-78
2023/05/11 09:36:58;;;;;;;16.23;10.13;;;;;;;17.57;65.72;99732.34;5022073;28;20247;-78
2023/05/11 09:39:33;;;;;;;16.63;8.40;;;;;;;17.57;65.64;99735.94;5021265;28;20290;-76
2023/05/11 09:42:18;;;;;;;16.95;9.80;;;;;;;17.76;65.59;99734.91;5022025;28;20900;-78
2023/05/11 09:44:45;;;;;;;19.27;10.23;;;;;;;17.72;65.23;99731.16;5021634;28;20076;-79
2023/05/11 09:47:15;;;;;;;15.30;8.55;;;;;;;17.73;65.29;99739.13;5022002;28;20037;-78
2023/05/11 09:49:44;;;;;;;18.33;9.75;;;;;;;17.72;65.34;99734.72;5021145;28;20038;-78
2023/05/11 09:52:15;;;;;;;14.57;8.05;;;;;;;17.80;64.28;99741.41;5022182;28;20056;-88
2023/05/11 09:54:45;;;;;;;15.77;9.85;;;;;;;17.70;64.78;99736.16;5022882;28;20137;-89
2023/05/11 09:57:23;;;;;;;14.77;7.65;;;;;;;17.79;63.62;99733.47;5023957;28;20072;-89
2023/05/11 09:59:49;;;;;;;15.18;9.35;;;;;;;17.78;64.66;99734.59;5021994;28;20049;-74
2023/05/11 10:02:22;;;;;;;17.95;10.30;;;;;;;17.71;63.53;99735.03;5021612;28;20056;-73
2023/05/11 10:04:52;;;;;;;15.07;10.00;;;;;;;17.61;64.59;99736.91;5021087;28;20034;-73
2023/05/11 10:07:29;;;;;;;15.68;9.13;;;;;;;17.57;62.78;99724.91;5021584;28;20128;-74
2023/05/11 10:09:56;;;;;;;17.73;9.90;;;;;;;17.58;64.83;99734.78;5020998;28;20044;-80
2023/05/11 10:12:24;;;;;;;23.13;10.82;;;;;;;17.67;64.00;99734.03;5021381;28;20204;-79
2023/05/11 10:14:51;;;;;;;18.45;11.43;;;;;;;17.54;64.52;99735.72;5021468;28;20130;-79
2023/05/11 10:17:18;;;;;;;19.65;10.90;;;;;;;17.52;64.79;99729.72;5021418;28;20049;-80
2023/05/11 10:19:45;;;;;;;18.65;10.25;;;;;;;17.59;65.46;99735.63;5019858;28;20040;-79
2023/05/11 10:22:11;;;;;;;19.67;10.38;;;;;;;17.60;64.70;99731.72;5020887;28;20088;-72
2023/05/11 10:24:36;;;;;;;15.60;9.63;;;;;;;17.56;64.98;99736.22;5020569;28;20033;-73
2023/05/11 10:27:02;;;;;;;22.15;12.65;;;;;;;17.55;64.92;99735.44;5020578;28;20040;-73
2023/05/11 10:29:28;;;;;;;21.67;10.88;;;;;;;17.52;63.89;99730.53;5019827;28;20033;-73
2023/05/11 10:31:56;;;;;;;18.25;11.45;;;;;;;17.52;64.45;99730.53;5020761;28;20123;-73
2023/05/11 10:34:27;;;;;;;26.17;15.85;;;;;;;17.52;65.55;99725.00;5020837;28;20037;-73
2023/05/11 10:36:55;;;;;;;23.33;12.52;;;;;;;17.51;65.81;99728.91;5020370;28;20122;-73
2023/05/11 10:39:21;;;;;;;28.10;12.80;;;;;;;17.41;66.89;99721.69;5020160;28;20060;-73
2023/05/11 10:42:03;;;;;;;26.42;14.18;;;;;;;17.35;67.19;99726.50;5020411;28;20896;-73
2023/05/11 10:44:54;;;;;;;27.20;14.55;;;;;;;17.47;66.31;99723.19;5020431;28;20041;-73
2023/05/11 10:47:41;;;;;;;24.55;14.60;;;;;;;17.59;66.46;99719.88;5020889;28;20037;-73
2023/05/11 10:50:20;;;;;;;19.27;11.10;;;;;;;17.73;66.95;99721.75;5020294;28;20041;-73
2023/05/11 10:53:10;;;;;;;18.70;12.75;;;;;;;17.50;65.58;99727.28;5019957;28;20030;-73
2023/05/11 10:55:59;;;;;;;25.35;13.65;;;;;;;17.62;65.71;99724.78;5020560;28;20041;-73
2023/05/11 10:58:46;;;;;;;21.25;11.73;;;;;;;17.79;66.08;99723.25;5019848;28;20049;-73
2023/05/11 11:01:35;;;;;;;24.50;12.85;;;;;;;17.81;66.43;99723.75;5020046;28;20033;-73
2023/05/11 11:04:04;;;;;;;27.42;16.58;;;;;;;17.49;66.92;99722.91;5020580;28;20856;-74
2023/05/11 11:06:30;;;;;;;22.80;12.75;;;;;;;17.53;66.70;99723.91;5021853;28;20427;-74
2023/05/11 11:09:14;;;;;;;29.73;15.57;;;;;;;17.54;66.36;99722.75;5024281;28;20041;-74
2023/05/11 11:11:45;;;;;;;25.92;14.57;;;;;;;17.35;67.10;99729.25;5023708;28;20063;-74
2023/05/11 11:14:12;;;;;;;25.25;15.32;;;;;;;17.19;67.42;99725.25;5024416;28;20124;-74
2023/05/11 11:16:39;;;;;;;24.63;15.35;;;;;;;17.31;68.41;99725.50;5024013;28;20045;-74
2023/05/11 11:19:34;;;;;;;33.90;15.45;;;;;;;17.26;68.38;99723.69;5023717;28;20114;-74